createdAt,value
2022-08-31T00:02:16.897Z,95402.56
2022-08-31T00:04:50.188Z,95413.56
2022-08-31T00:07:38.023Z,95404.88
2022-08-31T00:10:32.304Z,95409.22
2022-08-31T00:13:22.881Z,95400.69
2022-08-31T00:15:57.960Z,95403.28
2022-08-31T00:18:45.892Z,95405.03
2022-08-31T00:21:25.864Z,95403.25
2022-08-31T00:24:20.899Z,95396.34
2022-08-31T00:27:07.890Z,95398.09
2022-08-31T00:29:41.121Z,95398.19
2022-08-31T00:32:28.911Z,95398.28
2022-08-31T00:35:01.963Z,95401.81
2022-08-31T00:37:48.899Z,95395.03
2022-08-31T00:40:22.021Z,95395.06
2022-08-31T00:43:27.865Z,95391.66
2022-08-31T00:46:01.078Z,95389.03
2022-08-31T00:48:52.877Z,95386.50
2022-08-31T00:51:25.965Z,95390.91
2022-08-31T00:54:14.900Z,95390.97
2022-08-31T00:56:55.925Z,95393.63
2022-08-31T00:59:51.899Z,95392.91
2022-08-31T01:02:39.072Z,95397.22
2022-08-31T01:05:13.991Z,95399.72
2022-08-31T01:08:01.875Z,95404.88
2022-08-31T01:10:46.914Z,95397.16
2022-08-31T01:13:43.899Z,95405.72
2022-08-31T01:16:43.937Z,95405.84
2022-08-31T01:19:41.965Z,95407.63
2022-08-31T01:22:28.920Z,95404.16
2022-08-31T01:25:02.985Z,95402.41
2022-08-31T01:27:49.895Z,95398.94
2022-08-31T01:30:31.987Z,95399.88
2022-08-31T01:33:20.032Z,95404.25
2022-08-31T01:35:53.017Z,95405.94
2022-08-31T01:38:40.909Z,95403.28
2022-08-31T01:41:21.922Z,95399.03
2022-08-31T01:44:08.977Z,95398.19
2022-08-31T01:46:42.069Z,95399.06
2022-08-31T01:49:30.923Z,95399.88
2022-08-31T01:52:10.925Z,95405.88
2022-08-31T01:55:04.925Z,95412.78
2022-08-31T01:57:51.921Z,95404.16
2022-08-31T02:00:24.992Z,95403.28
2022-08-31T02:03:14.937Z,95411.97
2022-08-31T02:05:48.028Z,95405.97
2022-08-31T02:08:34.934Z,95405.16
2022-08-31T02:11:08.009Z,95409.53
2022-08-31T02:13:54.921Z,95406.16
2022-08-31T02:16:34.953Z,95413.06
2022-08-31T02:19:22.928Z,95408.00
2022-08-31T02:22:02.963Z,95414.00
2022-08-31T02:24:56.930Z,95414.84
2022-08-31T02:27:51.935Z,95410.53
2022-08-31T02:30:45.928Z,95395.97
2022-08-31T02:33:32.927Z,95398.53
2022-08-31T02:36:07.015Z,95402.84
2022-08-31T02:38:54.942Z,95399.53
2022-08-31T02:41:35.947Z,95397.03
2022-08-31T02:44:22.953Z,95402.28
2022-08-31T02:46:56.177Z,95403.22
2022-08-31T02:49:42.953Z,95399.00
2022-08-31T02:52:22.950Z,95395.59
2022-08-31T02:55:17.964Z,95408.59
2022-08-31T02:58:04.952Z,95409.44
2022-08-31T03:00:39.036Z,95400.78
2022-08-31T03:03:26.968Z,95398.22
2022-08-31T03:06:00.028Z,95394.78
2022-08-31T03:08:48.951Z,95399.91
2022-08-31T03:11:24.024Z,95399.94
2022-08-31T03:14:11.001Z,95390.53
2022-08-31T03:16:46.101Z,95391.50
2022-08-31T03:19:36.970Z,95399.22
2022-08-31T03:22:10.745Z,95400.09
2022-08-31T03:25:00.150Z,95400.06
2022-08-31T03:27:36.219Z,95395.78
2022-08-31T03:30:29.269Z,95394.97
2022-08-31T03:33:10.023Z,95401.00
2022-08-31T03:36:00.286Z,95407.00
2022-08-31T03:38:42.069Z,95400.09
2022-08-31T03:41:38.990Z,95396.66
2022-08-31T03:44:32.129Z,95396.66
2022-08-31T03:47:05.067Z,95392.34
2022-08-31T03:49:54.034Z,95392.41
2022-08-31T03:52:27.328Z,95395.91
2022-08-31T03:55:18.059Z,95389.94
2022-08-31T03:57:51.395Z,95394.19
2022-08-31T04:00:38.992Z,95397.56
2022-08-31T04:03:14.187Z,95401.84
2022-08-31T04:06:00.997Z,95406.16
2022-08-31T04:08:41.007Z,95404.41
2022-08-31T04:11:45.608Z,95397.50
2022-08-31T04:14:33.007Z,95404.31
2022-08-31T04:17:06.062Z,95396.53
2022-08-31T04:19:53.001Z,95403.38
2022-08-31T04:22:26.066Z,95404.16
2022-08-31T04:25:13.004Z,95406.75
2022-08-31T04:27:54.295Z,95407.59
2022-08-31T04:30:46.296Z,95412.72
2022-08-31T04:33:26.029Z,95417.84
2022-08-31T04:36:24.997Z,95416.88
2022-08-31T04:39:07.030Z,95416.84
2022-08-31T04:42:01.011Z,95424.50
2022-08-31T04:44:48.023Z,95410.75
2022-08-31T04:47:21.082Z,95415.81
2022-08-31T04:50:08.014Z,95416.63
2022-08-31T04:52:42.233Z,95408.00
2022-08-31T04:55:30.025Z,95407.19
2022-08-31T04:58:11.016Z,95404.53
2022-08-31T05:00:59.051Z,95406.22
2022-08-31T05:03:32.218Z,95407.91
2022-08-31T05:06:22.035Z,95411.28
2022-08-31T05:08:59.107Z,95421.56
2022-08-31T05:11:47.052Z,95415.50
2022-08-31T05:14:24.325Z,95420.63
2022-08-31T05:17:14.951Z,95413.69
2022-08-31T05:19:49.116Z,95419.63
2022-08-31T05:22:37.031Z,95424.69
2022-08-31T05:25:17.028Z,95423.75
2022-08-31T05:28:04.021Z,95427.94
2022-08-31T05:30:37.177Z,95422.72
2022-08-31T05:33:24.072Z,95422.66
2022-08-31T05:35:57.117Z,95425.16
2022-08-31T05:38:45.038Z,95427.63
2022-08-31T05:41:18.108Z,95434.44
2022-08-31T05:44:05.051Z,95432.66
2022-08-31T05:46:45.089Z,95429.22
2022-08-31T05:49:48.062Z,95432.59
2022-08-31T05:52:42.055Z,95440.22
2022-08-31T05:55:29.030Z,95437.59
2022-08-31T05:58:09.054Z,95438.31
2022-08-31T06:00:56.043Z,95441.69
2022-08-31T06:03:29.355Z,95444.19
2022-08-31T06:06:16.054Z,95450.13
2022-08-31T06:08:52.967Z,95448.34
2022-08-31T06:11:41.058Z,95451.72
2022-08-31T06:14:16.122Z,95449.09
2022-08-31T06:17:03.069Z,95454.13
2022-08-31T06:19:44.052Z,95443.69
2022-08-31T06:22:32.077Z,95453.94
2022-08-31T06:25:07.065Z,95459.00
2022-08-31T06:27:57.046Z,95456.38
2022-08-31T06:30:47.753Z,95464.91
2022-08-31T06:33:48.052Z,95457.09
2022-08-31T06:36:37.073Z,95459.59
2022-08-31T06:39:12.520Z,95461.28
2022-08-31T06:42:02.091Z,95464.66
2022-08-31T06:44:43.065Z,95466.28
2022-08-31T06:47:30.067Z,95455.06
2022-08-31T06:50:03.165Z,95465.28
2022-08-31T06:52:50.134Z,95460.94
2022-08-31T06:55:30.096Z,95462.66
2022-08-31T06:58:24.086Z,95460.78
2022-08-31T07:01:26.344Z,95461.59
2022-08-31T07:04:22.094Z,95464.97
2022-08-31T07:06:55.253Z,95457.16
2022-08-31T07:09:42.129Z,95466.56
2022-08-31T07:12:15.248Z,95469.00
2022-08-31T07:15:02.140Z,95468.97
2022-08-31T07:17:42.123Z,95474.84
2022-08-31T07:20:29.130Z,95471.41
2022-08-31T07:23:02.193Z,95472.97
2022-08-31T07:25:49.106Z,95468.59
2022-08-31T07:28:22.203Z,95469.38
2022-08-31T07:31:10.183Z,95478.81
2022-08-31T07:33:43.555Z,95465.00
2022-08-31T07:36:32.149Z,95476.91
2022-08-31T07:39:30.136Z,95479.34
2022-08-31T07:42:25.160Z,95486.09
2022-08-31T07:45:21.128Z,95481.66
2022-08-31T07:48:10.149Z,95482.41
2022-08-31T07:50:45.912Z,95483.22
2022-08-31T07:53:33.145Z,95490.00
2022-08-31T07:56:06.952Z,95492.50
2022-08-31T07:58:57.149Z,95492.50
2022-08-31T08:01:32.253Z,95488.97
2022-08-31T08:04:32.134Z,95483.75
2022-08-31T08:07:07.310Z,95486.16
2022-08-31T08:09:55.159Z,95479.13
2022-08-31T08:12:28.622Z,95491.88
2022-08-31T08:15:15.161Z,95480.66
2022-08-31T08:17:48.227Z,95486.53
2022-08-31T08:20:37.727Z,95489.91
2022-08-31T08:23:29.225Z,95493.28
2022-08-31T08:26:21.873Z,95487.94
2022-08-31T08:29:02.158Z,95492.16
2022-08-31T08:31:59.196Z,95493.75
2022-08-31T08:34:50.177Z,95496.19
2022-08-31T08:37:41.008Z,95496.00
2022-08-31T08:40:57.172Z,95498.41
2022-08-31T08:43:52.390Z,95493.97
2022-08-31T08:46:47.237Z,95498.97
2022-08-31T08:49:58.127Z,95503.97
2022-08-31T08:52:49.144Z,95501.22
2022-08-31T08:55:27.214Z,95495.06
2022-08-31T08:58:17.127Z,95500.06
2022-08-31T09:00:50.219Z,95491.28
2022-08-31T09:03:53.135Z,95490.31
2022-08-31T09:07:06.168Z,95486.72
2022-08-31T09:10:18.177Z,95492.50
2022-08-31T09:13:21.262Z,95479.47
2022-08-31T09:16:28.181Z,95489.72
2022-08-31T09:19:23.157Z,95474.06
2022-08-31T09:22:04.230Z,95483.44
2022-08-31T09:24:52.233Z,95469.78
2022-08-31T09:27:55.188Z,95470.63
2022-08-31T09:31:00.191Z,95471.41
2022-08-31T09:33:55.163Z,95476.50
2022-08-31T09:36:29.260Z,95460.91
2022-08-31T09:39:25.165Z,95455.59
2022-08-31T09:42:18.333Z,95459.72
2022-08-31T09:45:16.189Z,95465.53
2022-08-31T09:48:08.169Z,95461.13
2022-08-31T09:50:46.310Z,95462.78
2022-08-31T09:53:52.196Z,95464.41
2022-08-31T09:56:35.177Z,95462.78
2022-08-31T09:59:54.170Z,95449.06
2022-08-31T10:02:44.160Z,95455.09
2022-08-31T10:05:41.812Z,95448.16
2022-08-31T10:09:03.173Z,95443.81
2022-08-31T10:11:39.433Z,95450.63
2022-08-31T10:14:30.182Z,95444.47
2022-08-31T10:17:38.269Z,95447.06
2022-08-31T10:20:30.574Z,95435.03
2022-08-31T10:23:27.199Z,95432.47
2022-08-31T10:26:38.187Z,95426.41
2022-08-31T10:29:39.184Z,95439.28
2022-08-31T10:32:36.202Z,95440.25
2022-08-31T10:35:39.190Z,95443.81
2022-08-31T10:38:45.207Z,95455.25
2022-08-31T10:41:57.190Z,95454.59
2022-08-31T10:45:03.200Z,95447.13
2022-08-31T10:47:48.190Z,95449.91
2022-08-31T10:50:38.208Z,95457.09
2022-08-31T10:53:35.989Z,95448.72
2022-08-31T10:56:42.223Z,95448.06
2022-08-31T11:00:03.221Z,95455.09
2022-08-31T11:03:20.360Z,95458.66
2022-08-31T11:06:25.207Z,95455.25
2022-08-31T11:09:14.807Z,95457.88
2022-08-31T11:12:11.205Z,95459.69
2022-08-31T11:15:29.274Z,95456.25
2022-08-31T11:18:42.265Z,95455.47
2022-08-31T11:22:12.245Z,95460.66
2022-08-31T11:25:27.221Z,95453.84
2022-08-31T11:28:29.241Z,95446.13
2022-08-31T11:31:30.266Z,95435.78
2022-08-31T11:34:49.247Z,95443.50
2022-08-31T11:38:02.242Z,95437.31
2022-08-31T11:41:14.220Z,95437.97
2022-08-31T11:44:01.244Z,95433.50
2022-08-31T11:46:41.280Z,95433.44
2022-08-31T11:49:52.242Z,95424.81
2022-08-31T11:52:29.743Z,95424.81
2022-08-31T11:55:53.275Z,95425.66
2022-08-31T11:58:39.555Z,95417.00
2022-08-31T12:01:27.254Z,95410.91
2022-08-31T12:04:12.249Z,95398.81
2022-08-31T12:07:18.251Z,95405.69
2022-08-31T12:10:37.258Z,95419.41
2022-08-31T12:13:37.243Z,95405.63
2022-08-31T12:16:22.352Z,95407.34
2022-08-31T12:20:00.952Z,95405.78
2022-08-31T12:23:31.566Z,95409.34
2022-08-31T12:26:44.877Z,95404.38
2022-08-31T12:29:25.249Z,95408.00
2022-08-31T12:32:37.249Z,95403.84
2022-08-31T12:35:38.279Z,95407.50
2022-08-31T12:38:34.272Z,95403.31
2022-08-31T12:41:28.274Z,95404.22
2022-08-31T12:44:22.261Z,95401.53
2022-08-31T12:47:27.275Z,95397.16
2022-08-31T12:50:41.248Z,95396.31
2022-08-31T12:54:02.286Z,95396.31
2022-08-31T12:57:18.289Z,95399.88
2022-08-31T13:00:24.299Z,95409.31
2022-08-31T13:03:40.276Z,95399.81
2022-08-31T13:06:45.299Z,95399.81
2022-08-31T13:09:34.281Z,95392.91
2022-08-31T13:12:08.378Z,95396.31
2022-08-31T13:14:55.303Z,95394.53
2022-08-31T13:17:28.362Z,95396.97
2022-08-31T13:20:15.312Z,95398.53
2022-08-31T13:22:49.000Z,95396.72
2022-08-31T13:25:43.307Z,95394.94
2022-08-31T13:28:17.705Z,95399.97
2022-08-31T13:31:15.354Z,95405.97
2022-08-31T13:33:55.313Z,95401.66
2022-08-31T13:36:44.300Z,95399.00
2022-08-31T13:39:35.407Z,95394.75
2022-08-31T13:42:50.811Z,95397.31
2022-08-31T13:46:04.345Z,95397.38
2022-08-31T13:48:43.381Z,95399.13
2022-08-31T13:51:31.321Z,95391.50
2022-08-31T13:54:11.483Z,95394.09
2022-08-31T13:57:01.317Z,95391.50
2022-08-31T13:59:36.464Z,95384.56
2022-08-31T14:02:25.341Z,95385.41
2022-08-31T14:05:05.050Z,95387.13
2022-08-31T14:07:53.315Z,95383.66
2022-08-31T14:10:30.620Z,95388.00
2022-08-31T14:13:28.328Z,95386.34
2022-08-31T14:16:13.365Z,95385.47
2022-08-31T14:19:02.335Z,95378.66
2022-08-31T14:21:50.330Z,95387.34
2022-08-31T14:24:44.343Z,95383.16
2022-08-31T14:27:31.336Z,95379.78
2022-08-31T14:30:06.482Z,95390.13
2022-08-31T14:32:53.345Z,95389.28
2022-08-31T14:35:27.138Z,95391.88
2022-08-31T14:38:14.357Z,95392.72
2022-08-31T14:40:50.073Z,95385.78
2022-08-31T14:43:38.365Z,95388.38
2022-08-31T14:46:12.484Z,95373.69
2022-08-31T14:48:59.343Z,95383.19
2022-08-31T14:51:34.197Z,95375.38
2022-08-31T14:54:23.339Z,95369.34
2022-08-31T14:57:05.380Z,95379.63
2022-08-31T15:00:03.393Z,95377.09
2022-08-31T15:02:50.460Z,95373.69
2022-08-31T15:05:33.358Z,95370.25
2022-08-31T15:08:38.457Z,95368.50
2022-08-31T15:11:25.404Z,95376.34
2022-08-31T15:14:05.356Z,95377.19
2022-08-31T15:16:54.416Z,95371.22
2022-08-31T15:19:37.447Z,95372.91
2022-08-31T15:22:32.391Z,95373.81
2022-08-31T15:25:19.432Z,95365.28
2022-08-31T15:27:59.353Z,95366.09
2022-08-31T15:30:59.386Z,95361.00
2022-08-31T15:33:50.361Z,95361.84
2022-08-31T15:36:24.906Z,95358.47
2022-08-31T15:39:11.383Z,95358.47
2022-08-31T15:41:44.608Z,95358.47
2022-08-31T15:44:31.373Z,95362.84
2022-08-31T15:47:30.527Z,95359.34
2022-08-31T15:50:17.390Z,95370.81
2022-08-31T15:52:57.361Z,95361.34
2022-08-31T15:55:46.377Z,95359.72
2022-08-31T15:58:26.504Z,95361.59
2022-08-31T16:01:22.435Z,95360.88
2022-08-31T16:04:04.764Z,95361.84
2022-08-31T16:06:52.405Z,95358.47
2022-08-31T16:09:26.541Z,95368.97
2022-08-31T16:12:19.388Z,95362.22
2022-08-31T16:14:52.483Z,95356.31
2022-08-31T16:17:39.391Z,95362.47
2022-08-31T16:20:20.471Z,95360.78
2022-08-31T16:23:07.399Z,95361.72
2022-08-31T16:25:47.676Z,95356.69
2022-08-31T16:28:35.398Z,95356.03
2022-08-31T16:31:12.507Z,95357.84
2022-08-31T16:34:02.405Z,95370.03
2022-08-31T16:36:42.399Z,95366.66
2022-08-31T16:39:36.390Z,95366.78
2022-08-31T16:42:30.416Z,95363.47
2022-08-31T16:45:25.453Z,95356.72
2022-08-31T16:48:31.436Z,95361.16
2022-08-31T16:51:12.408Z,95362.13
2022-08-31T16:54:08.432Z,95360.50
2022-08-31T16:56:55.421Z,95365.00
2022-08-31T16:59:28.572Z,95367.69
2022-08-31T17:02:18.490Z,95364.44
2022-08-31T17:04:54.062Z,95370.56
2022-08-31T17:07:41.428Z,95372.41
2022-08-31T17:10:15.591Z,95378.63
2022-08-31T17:13:02.426Z,95371.94
2022-08-31T17:15:35.497Z,95376.25
2022-08-31T17:18:22.423Z,95377.22
2022-08-31T17:21:04.454Z,95378.22
2022-08-31T17:24:01.420Z,95386.13
2022-08-31T17:26:49.444Z,95399.22
2022-08-31T17:29:30.430Z,95398.56
2022-08-31T17:32:20.418Z,95396.97
2022-08-31T17:34:54.717Z,95387.53
2022-08-31T17:37:43.431Z,95391.97
2022-08-31T17:40:24.492Z,95388.69
2022-08-31T17:43:21.425Z,95395.72
2022-08-31T17:46:18.513Z,95401.03
2022-08-31T17:48:55.869Z,95398.53
2022-08-31T17:51:42.467Z,95412.53
2022-08-31T17:54:19.655Z,95405.72
2022-08-31T17:57:08.456Z,95409.19
2022-08-31T18:00:01.473Z,95413.59
2022-08-31T18:02:48.440Z,95406.75
2022-08-31T18:05:22.881Z,95406.88
2022-08-31T18:08:09.442Z,95408.75
2022-08-31T18:10:49.495Z,95410.69
2022-08-31T18:13:43.501Z,95416.88
2022-08-31T18:16:37.560Z,95417.84
2022-08-31T18:19:25.515Z,95422.19
2022-08-31T18:22:02.603Z,95423.22
2022-08-31T18:24:50.435Z,95426.66
2022-08-31T18:27:30.510Z,95414.72
2022-08-31T18:30:20.538Z,95421.78
2022-08-31T18:33:00.470Z,95421.84
2022-08-31T18:35:59.465Z,95411.59
2022-08-31T18:38:46.492Z,95410.84
2022-08-31T18:41:38.596Z,95412.69
2022-08-31T18:44:45.507Z,95416.25
2022-08-31T18:47:27.476Z,95419.03
2022-08-31T18:50:21.469Z,95431.22
2022-08-31T18:53:28.789Z,95424.44
2022-08-31T18:56:17.475Z,95433.94
2022-08-31T18:58:50.569Z,95435.75
2022-08-31T19:01:37.586Z,95440.13
2022-08-31T19:04:12.609Z,95427.38
2022-08-31T19:06:59.489Z,95430.94
2022-08-31T19:09:32.574Z,95431.03
2022-08-31T19:12:25.498Z,95431.03
2022-08-31T19:15:02.079Z,95431.94
2022-08-31T19:17:52.502Z,95439.66
2022-08-31T19:20:28.911Z,95438.00
2022-08-31T19:23:19.831Z,95428.69
2022-08-31T19:26:00.528Z,95429.63
2022-08-31T19:28:55.501Z,95419.31
2022-08-31T19:31:44.535Z,95419.41
2022-08-31T19:34:30.499Z,95417.72
2022-08-31T19:37:19.524Z,95416.09
2022-08-31T19:39:52.667Z,95416.13
2022-08-31T19:43:53.354Z,95422.16
2022-08-31T19:46:15.945Z,95407.63
2022-08-31T19:49:06.495Z,95412.91
2022-08-31T19:51:46.719Z,95395.78
2022-08-31T19:54:46.501Z,95401.81
2022-08-31T19:57:40.509Z,95405.28
2022-08-31T20:00:36.512Z,95394.16
2022-08-31T20:03:30.517Z,95395.94
2022-08-31T20:06:20.512Z,95396.81
2022-08-31T20:08:56.682Z,95396.84
2022-08-31T20:11:44.525Z,95397.78
2022-08-31T20:14:17.662Z,95387.59
2022-08-31T20:17:05.532Z,95390.16
2022-08-31T20:19:39.528Z,95393.56
2022-08-31T20:22:30.534Z,95391.00
2022-08-31T20:25:03.973Z,95391.84
2022-08-31T20:27:50.773Z,95386.72
2022-08-31T20:30:23.647Z,95396.19
2022-08-31T20:33:11.600Z,95391.97
2022-08-31T20:35:47.928Z,95397.22
2022-08-31T20:38:36.519Z,95399.00
2022-08-31T20:41:17.523Z,95404.19
2022-08-31T20:44:17.546Z,95403.28
2022-08-31T20:47:26.592Z,95402.50
2022-08-31T20:50:13.530Z,95405.16
2022-08-31T20:53:07.536Z,95402.66
2022-08-31T20:55:54.562Z,95406.13
2022-08-31T20:58:35.983Z,95401.06
2022-08-31T21:01:22.610Z,95400.31
2022-08-31T21:03:55.628Z,95404.66
2022-08-31T21:06:45.536Z,95407.38
2022-08-31T21:09:20.074Z,95402.25
2022-08-31T21:12:06.529Z,95410.00
2022-08-31T21:14:43.583Z,95406.56
2022-08-31T21:17:31.561Z,95403.94
2022-08-31T21:20:04.732Z,95400.56
2022-08-31T21:22:51.561Z,95409.22
2022-08-31T21:25:32.559Z,95407.53
2022-08-31T21:28:22.576Z,95406.84
2022-08-31T21:30:55.690Z,95413.81
2022-08-31T21:33:42.550Z,95413.88
2022-08-31T21:36:18.724Z,95411.22
2022-08-31T21:39:05.547Z,95416.31
2022-08-31T21:41:46.581Z,95418.03
2022-08-31T21:44:40.555Z,95409.56
2022-08-31T21:47:27.594Z,95412.16
2022-08-31T21:50:00.648Z,95406.19
2022-08-31T21:52:47.557Z,95411.44
2022-08-31T21:55:20.660Z,95410.59
2022-08-31T21:58:07.582Z,95407.22
2022-08-31T22:00:42.227Z,95404.69
2022-08-31T22:03:29.587Z,95404.69
2022-08-31T22:06:04.368Z,95401.31
2022-08-31T22:08:51.574Z,95404.91
2022-08-31T22:11:27.670Z,95405.84
2022-08-31T22:14:16.601Z,95403.38
2022-08-31T22:16:51.985Z,95401.66
2022-08-31T22:19:42.581Z,95393.97
2022-08-31T22:22:21.202Z,95390.66
2022-08-31T22:25:09.589Z,95388.22
2022-08-31T22:27:49.588Z,95383.06
2022-08-31T22:30:43.668Z,95378.78
2022-08-31T22:33:31.600Z,95384.91
2022-08-31T22:36:04.779Z,95390.13
2022-08-31T22:38:52.608Z,95389.31
2022-08-31T22:41:25.714Z,95395.38
2022-08-31T22:44:23.581Z,95398.91
2022-08-31T22:47:17.609Z,95396.44
2022-08-31T22:50:11.596Z,95393.00
2022-08-31T22:52:58.665Z,95389.63
2022-08-31T22:55:31.667Z,95392.28
2022-08-31T22:58:19.689Z,95388.00
2022-08-31T23:00:52.696Z,95389.78
2022-08-31T23:03:39.587Z,95385.56
2022-08-31T23:06:13.743Z,95384.75
2022-08-31T23:09:02.605Z,95385.63
2022-08-31T23:11:42.625Z,95371.94
2022-08-31T23:14:29.615Z,95374.53
2022-08-31T23:17:09.139Z,95382.25
2022-08-31T23:19:58.686Z,95376.31
2022-08-31T23:22:39.598Z,95375.50
2022-08-31T23:25:38.628Z,95378.25
2022-08-31T23:28:25.616Z,95374.88
2022-08-31T23:31:05.642Z,95377.47
2022-08-31T23:33:59.614Z,95382.69
2022-08-31T23:36:48.614Z,95383.50
2022-08-31T23:39:34.622Z,95384.41
2022-08-31T23:42:29.623Z,95385.31
2022-08-31T23:45:17.651Z,95386.22
2022-08-31T23:47:51.478Z,95376.88
2022-08-31T23:50:38.641Z,95375.31
2022-08-31T23:53:14.706Z,95380.47
2022-08-31T23:56:01.619Z,95377.09
2022-08-31T23:58:34.793Z,95372.84
